Time;durP1;ratioP1;P1;durP2;ratioP2;P2;SDS_P1;SDS_P2;PMS_P1;PMS_P2;Temp;Humidity;BMP_temperature;BMP_pressure;BME280_temperature;BME280_humidity;BME280_pressure;Samples;Min_cycle;Max_cycle;Signal;HPM_P1;HPM_P2
2024/03/27 00:00:38;;;;;;;4.50;2.45;;;11.70;99.90;;;;;;5035162;28;20118;-78
2024/03/27 00:03:04;;;;;;;5.47;2.58;;;11.80;99.90;;;;;;5033682;28;20064;-78
2024/03/27 00:05:31;;;;;;;4.68;2.53;;;11.80;99.90;;;;;;5034361;28;20029;-78
2024/03/27 00:07:59;;;;;;;4.25;2.50;;;11.80;99.90;;;;;;5033771;28;20021;-78
2024/03/27 00:10:27;;;;;;;6.10;2.60;;;11.80;99.90;;;;;;5035224;28;20025;-77
2024/03/27 00:12:53;;;;;;;7.07;2.30;;;11.70;99.90;;;;;;5034009;28;20022;-77
2024/03/27 00:15:19;;;;;;;4.43;2.33;;;11.70;99.90;;;;;;5034319;28;20076;-78
2024/03/27 00:17:45;;;;;;;7.20;2.78;;;11.70;99.90;;;;;;5033397;28;20080;-78
2024/03/27 00:20:12;;;;;;;4.55;2.55;;;11.70;99.90;;;;;;5033965;28;20056;-78
2024/03/27 00:22:37;;;;;;;5.68;2.67;;;11.70;99.90;;;;;;5033199;28;20022;-78
2024/03/27 00:25:03;;;;;;;3.63;2.25;;;11.70;99.90;;;;;;5028503;28;20045;-78
2024/03/27 00:27:29;;;;;;;4.30;2.35;;;11.70;99.90;;;;;;5022340;28;20033;-78
2024/03/27 00:29:55;;;;;;;4.95;2.75;;;11.70;99.90;;;;;;5023837;28;20026;-78
2024/03/27 00:32:21;;;;;;;6.85;3.08;;;11.70;99.90;;;;;;5024882;28;20025;-79
2024/03/27 00:34:46;;;;;;;4.90;2.40;;;11.70;99.90;;;;;;5028338;28;20025;-78
2024/03/27 00:37:12;;;;;;;4.32;2.67;;;11.60;99.90;;;;;;5034299;28;20509;-78
2024/03/27 00:39:38;;;;;;;3.90;2.47;;;11.60;99.90;;;;;;5034152;28;20021;-78
2024/03/27 00:42:04;;;;;;;4.03;2.28;;;11.60;99.90;;;;;;5033169;28;20398;-79
2024/03/27 00:44:30;;;;;;;5.93;2.72;;;11.60;99.90;;;;;;5033869;28;20043;-78
2024/03/27 00:46:55;;;;;;;4.90;2.70;;;11.60;99.90;;;;;;5032825;28;20089;-78
2024/03/27 00:49:21;;;;;;;5.20;2.45;;;11.60;99.90;;;;;;5033787;28;20041;-78
2024/03/27 00:51:47;;;;;;;6.50;2.88;;;11.60;99.90;;;;;;5048465;28;20030;-78
2024/03/27 00:54:12;;;;;;;4.85;2.53;;;11.50;99.90;;;;;;5034079;28;20541;-78
2024/03/27 00:56:38;;;;;;;3.58;2.63;;;11.50;99.90;;;;;;5033294;28;20082;-78
2024/03/27 00:59:04;;;;;;;5.93;2.88;;;11.50;99.90;;;;;;5033507;28;20104;-79
2024/03/27 01:01:30;;;;;;;6.72;2.90;;;11.50;99.90;;;;;;5033307;28;20018;-78
2024/03/27 01:03:56;;;;;;;4.72;2.60;;;11.50;99.90;;;;;;5033219;28;20033;-77
2024/03/27 01:06:22;;;;;;;6.82;2.92;;;11.40;99.90;;;;;;5033540;28;20375;-78
2024/03/27 01:08:47;;;;;;;5.43;2.75;;;11.40;99.90;;;;;;5033029;28;20034;-78
2024/03/27 01:11:13;;;;;;;5.57;2.50;;;11.40;99.90;;;;;;5037595;28;20029;-80
2024/03/27 01:13:39;;;;;;;5.88;2.80;;;11.40;99.90;;;;;;5034107;28;20542;-79
2024/03/27 01:16:05;;;;;;;6.80;2.90;;;11.40;99.90;;;;;;5034554;28;20104;-79
2024/03/27 01:18:30;;;;;;;5.95;2.92;;;11.40;99.90;;;;;;5032892;28;20061;-79
2024/03/27 01:20:57;;;;;;;7.10;3.10;;;11.40;99.90;;;;;;5033579;28;20479;-79
2024/03/27 01:23:23;;;;;;;5.72;3.15;;;11.30;99.90;;;;;;5020120;28;20060;-78
2024/03/27 01:25:49;;;;;;;5.13;2.80;;;11.30;99.90;;;;;;5017844;28;20057;-79
2024/03/27 01:28:14;;;;;;;5.20;3.05;;;11.30;99.90;;;;;;5021189;28;20476;-78
2024/03/27 01:33:06;;;;;;;4.70;2.88;;;11.20;99.90;;;;;;5021644;28;20439;-79
2024/03/27 01:35:31;;;;;;;5.75;3.22;;;11.20;99.90;;;;;;5027446;28;20025;-79
2024/03/27 01:37:57;;;;;;;5.68;2.70;;;11.20;99.90;;;;;;5031927;28;20490;-78
2024/03/27 01:40:23;;;;;;;7.38;3.30;;;11.10;99.90;;;;;;5032439;28;20021;-78
2024/03/27 01:42:58;;;;;;;5.28;3.00;;;11.10;99.90;;;;;;5031687;28;20045;-78
2024/03/27 01:45:24;;;;;;;6.95;3.13;;;11.10;99.90;;;;;;5032218;28;20390;-77
2024/03/27 01:47:50;;;;;;;5.13;3.13;;;11.10;99.90;;;;;;5031635;28;20026;-77
2024/03/27 01:50:16;;;;;;;6.43;3.28;;;11.00;99.90;;;;;;5032645;28;20061;-77
2024/03/27 01:52:42;;;;;;;5.82;3.58;;;11.00;99.90;;;;;;5031828;28;20041;-78
2024/03/27 01:55:08;;;;;;;6.07;3.28;;;11.00;99.90;;;;;;5032068;28;20467;-77
2024/03/27 01:57:37;;;;;;;5.15;3.38;;;10.90;99.90;;;;;;5031249;28;20113;-77
2024/03/27 02:00:04;;;;;;;7.07;3.42;;;10.90;99.90;;;;;;5031859;28;20087;-78
2024/03/27 02:02:29;;;;;;;5.93;3.58;;;10.90;99.90;;;;;;5031588;28;20475;-78
2024/03/27 02:04:55;;;;;;;5.15;3.30;;;10.90;99.90;;;;;;5032167;28;20032;-78
2024/03/27 02:07:21;;;;;;;6.15;3.35;;;10.90;99.90;;;;;;5031355;28;20030;-79
2024/03/27 02:09:47;;;;;;;6.18;3.78;;;10.90;99.90;;;;;;5032003;28;20028;-78
2024/03/27 02:12:14;;;;;;;6.97;3.50;;;10.90;99.90;;;;;;5031249;28;20053;-78
2024/03/27 02:14:40;;;;;;;5.57;3.60;;;10.80;99.90;;;;;;5031683;28;20028;-78
2024/03/27 02:17:05;;;;;;;4.80;3.13;;;10.80;99.90;;;;;;5031212;28;20033;-78
2024/03/27 02:19:31;;;;;;;5.50;3.42;;;10.80;99.90;;;;;;5031689;28;20110;-78
2024/03/27 02:21:56;;;;;;;6.32;3.40;;;10.80;99.90;;;;;;5031174;28;20033;-78
2024/03/27 02:24:29;;;;;;;4.90;3.28;;;10.80;99.90;;;;;;5029634;28;20033;-78
2024/03/27 02:26:55;;;;;;;5.90;3.40;;;10.80;99.90;;;;;;5029937;28;20112;-78
2024/03/27 02:29:21;;;;;;;6.35;3.00;;;10.80;99.90;;;;;;5031820;28;20021;-78
2024/03/27 02:31:47;;;;;;;5.32;2.83;;;10.80;99.90;;;;;;5030127;28;20072;-78
2024/03/27 02:34:12;;;;;;;5.85;3.38;;;10.80;99.90;;;;;;5033352;28;20034;-79
2024/03/27 02:36:38;;;;;;;5.93;3.20;;;10.80;99.90;;;;;;5034506;28;20525;-78
2024/03/27 02:39:07;;;;;;;5.93;3.03;;;10.80;99.90;;;;;;5035137;28;20037;-78
2024/03/27 02:41:33;;;;;;;5.93;2.92;;;10.80;99.90;;;;;;5032426;28;20471;-78
2024/03/27 02:43:58;;;;;;;4.95;3.10;;;10.70;99.90;;;;;;5033093;28;20038;-78
2024/03/27 02:46:24;;;;;;;3.95;2.60;;;10.70;99.90;;;;;;5033672;28;20022;-78
2024/03/27 02:48:50;;;;;;;8.75;3.03;;;10.70;99.90;;;;;;5032652;28;20026;-79
2024/03/27 02:51:15;;;;;;;5.28;3.00;;;10.70;99.90;;;;;;5035154;28;20095;-77
2024/03/27 02:53:41;;;;;;;7.15;2.67;;;10.60;99.90;;;;;;5034127;28;20029;-78
2024/03/27 02:56:07;;;;;;;8.07;3.20;;;10.60;99.90;;;;;;5032680;28;20017;-78
2024/03/27 02:58:32;;;;;;;6.45;2.95;;;10.60;99.90;;;;;;5031788;28;20076;-78
2024/03/27 03:00:58;;;;;;;10.55;3.25;;;10.60;99.90;;;;;;5032349;28;20109;-78
2024/03/27 03:03:23;;;;;;;5.72;2.97;;;10.60;99.90;;;;;;5022577;28;20025;-78
2024/03/27 03:05:50;;;;;;;6.25;3.13;;;10.60;99.90;;;;;;5012720;28;20024;-79
2024/03/27 03:08:15;;;;;;;6.43;3.15;;;10.70;99.90;;;;;;5012148;28;20414;-78
2024/03/27 03:10:41;;;;;;;8.50;2.65;;;10.70;99.90;;;;;;5010884;28;20109;-78
2024/03/27 03:13:07;;;;;;;6.97;3.28;;;10.70;99.90;;;;;;5010972;28;20400;-78
2024/03/27 03:15:32;;;;;;;5.93;2.80;;;10.70;99.90;;;;;;5011901;28;20069;-78
2024/03/27 03:17:58;;;;;;;7.15;2.83;;;10.70;99.90;;;;;;5010621;28;20046;-78
2024/03/27 03:20:24;;;;;;;7.78;3.00;;;10.70;99.90;;;;;;5011449;28;20050;-78
2024/03/27 03:22:52;;;;;;;9.18;2.95;;;10.70;99.90;;;;;;5009724;28;20511;-78
2024/03/27 03:25:18;;;;;;;7.15;3.40;;;10.70;99.90;;;;;;5011941;28;20025;-78
2024/03/27 03:27:44;;;;;;;7.28;2.90;;;10.80;99.90;;;;;;5013251;28;20018;-78
2024/03/27 03:30:10;;;;;;;6.05;3.00;;;10.80;99.90;;;;;;5014718;28;20022;-78
2024/03/27 03:32:35;;;;;;;9.05;2.75;;;10.80;99.90;;;;;;5014189;28;20377;-78
2024/03/27 03:35:01;;;;;;;6.18;3.00;;;10.80;99.90;;;;;;5014867;28;20029;-78
2024/03/27 03:37:27;;;;;;;4.72;2.70;;;10.70;99.90;;;;;;5014167;28;20235;-78
2024/03/27 03:39:52;;;;;;;7.57;3.15;;;10.80;99.90;;;;;;5013624;28;20021;-78
2024/03/27 03:42:18;;;;;;;8.73;3.10;;;10.70;99.90;;;;;;5014036;28;20049;-78
2024/03/27 03:44:44;;;;;;;5.80;2.88;;;10.80;99.90;;;;;;5014526;28;20387;-78
2024/03/27 03:47:10;;;;;;;5.68;2.83;;;10.80;99.90;;;;;;5014148;28;20093;-78
2024/03/27 03:49:36;;;;;;;5.25;2.75;;;10.80;99.90;;;;;;5014395;28;20514;-78
2024/03/27 03:52:02;;;;;;;5.10;2.65;;;10.80;99.90;;;;;;5014385;28;20068;-78
2024/03/27 03:54:28;;;;;;;5.32;2.70;;;10.80;99.90;;;;;;5013967;28;20030;-78
2024/03/27 03:56:54;;;;;;;4.40;2.60;;;10.80;99.90;;;;;;5013978;28;20386;-78
2024/03/27 03:59:20;;;;;;;6.00;2.88;;;10.80;99.90;;;;;;5013728;28;20030;-78
2024/03/27 04:01:45;;;;;;;5.75;2.60;;;10.80;99.90;;;;;;5014167;28;20022;-78
2024/03/27 04:04:11;;;;;;;6.00;3.20;;;10.80;99.90;;;;;;5013543;28;20056;-78
2024/03/27 04:06:37;;;;;;;8.30;3.00;;;10.80;99.90;;;;;;5014521;28;20025;-78
2024/03/27 04:09:02;;;;;;;7.00;3.00;;;10.80;99.90;;;;;;5012014;28;20029;-78
2024/03/27 04:11:28;;;;;;;5.45;2.88;;;10.80;99.90;;;;;;5014088;28;20104;-78
2024/03/27 04:13:54;;;;;;;8.95;3.25;;;10.80;99.90;;;;;;5012068;28;20034;-79
2024/03/27 04:16:20;;;;;;;5.70;2.83;;;10.80;99.90;;;;;;5014095;28;20084;-78
2024/03/27 04:18:45;;;;;;;5.28;2.97;;;10.80;99.90;;;;;;5013211;28;20052;-78
2024/03/27 04:21:11;;;;;;;5.88;2.85;;;10.80;99.90;;;;;;5013936;28;20018;-78
2024/03/27 04:23:37;;;;;;;4.40;2.70;;;10.80;99.90;;;;;;5013369;28;20042;-78
2024/03/27 04:26:03;;;;;;;6.60;2.85;;;10.90;99.90;;;;;;5013901;28;20026;-78
2024/03/27 04:28:30;;;;;;;5.22;2.40;;;10.80;99.90;;;;;;5013335;28;20014;-78
2024/03/27 04:30:56;;;;;;;5.05;2.97;;;10.90;99.90;;;;;;5013714;28;20030;-78
2024/03/27 04:33:22;;;;;;;7.18;2.80;;;10.80;99.90;;;;;;5013186;28;20089;-78
2024/03/27 04:35:48;;;;;;;7.50;2.95;;;10.90;99.90;;;;;;5013522;28;20121;-78
2024/03/27 04:38:14;;;;;;;6.43;3.00;;;10.80;99.90;;;;;;5013135;28;20022;-78
2024/03/27 04:40:40;;;;;;;6.50;3.03;;;10.80;99.90;;;;;;5013757;28;20083;-78
2024/03/27 04:43:06;;;;;;;6.10;2.75;;;10.80;99.90;;;;;;5013032;28;20032;-78
2024/03/27 04:45:31;;;;;;;6.25;2.72;;;10.80;99.90;;;;;;5014054;28;20026;-78
2024/03/27 04:47:57;;;;;;;6.43;2.60;;;10.80;99.90;;;;;;5013097;28;20061;-78
2024/03/27 04:50:23;;;;;;;6.13;2.50;;;10.80;99.90;;;;;;5013596;28;20084;-78
2024/03/27 04:52:49;;;;;;;5.00;2.30;;;10.70;99.90;;;;;;5012670;28;20483;-78
2024/03/27 04:55:15;;;;;;;5.15;2.50;;;10.70;99.90;;;;;;5012890;28;20450;-77
2024/03/27 04:57:41;;;;;;;6.68;2.42;;;10.70;99.90;;;;;;5011740;28;20614;-78
2024/03/27 05:00:07;;;;;;;4.00;2.20;;;10.70;99.90;;;;;;5013069;28;20049;-78
2024/03/27 05:02:32;;;;;;;4.50;2.40;;;10.70;99.90;;;;;;5012578;28;20026;-78
2024/03/27 05:04:58;;;;;;;6.00;2.65;;;10.70;99.90;;;;;;5013495;28;20029;-78
2024/03/27 05:07:24;;;;;;;5.72;1.98;;;10.70;99.90;;;;;;5012741;28;20021;-78
2024/03/27 05:09:49;;;;;;;4.18;1.90;;;10.70;99.90;;;;;;5012746;28;20487;-78
2024/03/27 05:12:15;;;;;;;6.28;2.33;;;10.70;99.90;;;;;;5011428;28;20076;-79
2024/03/27 05:14:41;;;;;;;3.92;2.03;;;10.70;99.90;;;;;;5012152;28;20053;-78
2024/03/27 05:17:08;;;;;;;5.15;2.63;;;10.70;99.90;;;;;;5013227;28;20033;-78
2024/03/27 05:19:34;;;;;;;4.95;2.63;;;10.70;99.90;;;;;;5012294;28;20045;-78
2024/03/27 05:22:00;;;;;;;3.80;2.05;;;10.70;99.90;;;;;;5012771;28;20052;-79
2024/03/27 05:24:26;;;;;;;6.40;2.55;;;10.70;99.90;;;;;;5012147;28;20057;-78
2024/03/27 05:26:52;;;;;;;3.50;2.03;;;10.70;99.90;;;;;;5013015;28;20021;-78
2024/03/27 05:29:18;;;;;;;3.67;2.00;;;10.70;99.90;;;;;;5011834;28;20034;-78
2024/03/27 05:31:47;;;;;;;5.80;2.22;;;10.80;99.90;;;;;;5012839;28;20026;-78
2024/03/27 05:34:14;;;;;;;5.28;2.42;;;10.80;99.90;;;;;;5012074;28;20084;-78
2024/03/27 05:36:40;;;;;;;5.80;2.28;;;10.80;99.90;;;;;;5012744;28;20028;-78
2024/03/27 05:39:06;;;;;;;4.15;2.10;;;10.80;99.90;;;;;;5012050;28;20105;-79
2024/03/27 05:41:32;;;;;;;4.50;2.30;;;10.90;99.90;;;;;;5012776;28;20022;-78
2024/03/27 05:43:58;;;;;;;3.92;2.42;;;10.90;99.90;;;;;;5011993;28;20030;-78
2024/03/27 05:46:24;;;;;;;2.95;2.05;;;10.90;99.90;;;;;;5011297;28;20022;-79
2024/03/27 05:48:49;;;;;;;3.80;2.30;;;10.90;99.90;;;;;;5012011;28;20022;-79
2024/03/27 05:51:17;;;;;;;5.82;2.45;;;10.90;99.90;;;;;;5012577;28;20104;-78
2024/03/27 05:53:42;;;;;;;3.50;2.10;;;10.90;99.90;;;;;;5010356;28;20026;-79
2024/03/27 05:56:08;;;;;;;4.90;2.90;;;10.90;99.90;;;;;;5012252;28;20029;-78
2024/03/27 05:58:34;;;;;;;4.68;2.20;;;10.90;99.90;;;;;;5011756;28;20030;-79
2024/03/27 06:00:59;;;;;;;5.32;2.40;;;10.90;99.90;;;;;;5012220;28;20022;-79
2024/03/27 06:03:25;;;;;;;4.53;2.40;;;10.90;99.90;;;;;;5011515;28;20029;-78
2024/03/27 06:05:51;;;;;;;3.80;2.35;;;10.90;99.90;;;;;;5012271;28;20029;-79
2024/03/27 06:08:17;;;;;;;5.70;2.60;;;10.90;99.90;;;;;;5012293;28;20113;-79
2024/03/27 06:10:47;;;;;;;4.32;2.20;;;10.90;99.90;;;;;;5016484;28;20097;-78
2024/03/27 06:13:13;;;;;;;4.50;2.75;;;10.90;99.90;;;;;;5015653;28;20033;-79
2024/03/27 06:15:39;;;;;;;5.03;2.20;;;10.90;99.90;;;;;;5016813;28;20026;-78
2024/03/27 06:18:05;;;;;;;3.33;2.20;;;10.90;99.90;;;;;;5015672;28;20052;-79
2024/03/27 06:20:32;;;;;;;4.07;2.25;;;11.00;99.90;;;;;;5016560;28;20024;-78
2024/03/27 06:22:58;;;;;;;3.92;2.60;;;10.90;99.90;;;;;;5015362;28;20115;-78
2024/03/27 06:25:24;;;;;;;3.72;2.50;;;11.00;99.90;;;;;;5016138;28;20064;-78
2024/03/27 06:27:50;;;;;;;4.00;2.28;;;11.00;99.90;;;;;;5015205;28;20104;-79
2024/03/27 06:30:16;;;;;;;3.50;2.60;;;11.00;99.90;;;;;;5016416;28;20049;-78
2024/03/27 06:32:42;;;;;;;4.63;3.35;;;11.00;99.90;;;;;;5015889;28;20057;-78
2024/03/27 06:35:08;;;;;;;5.32;3.42;;;11.00;99.90;;;;;;5015750;28;20372;-79
2024/03/27 06:37:34;;;;;;;4.72;3.20;;;11.00;99.90;;;;;;5014793;28;20033;-79
2024/03/27 06:40:00;;;;;;;5.05;3.75;;;10.90;99.90;;;;;;5014380;28;20042;-78
2024/03/27 06:42:27;;;;;;;6.72;4.70;;;11.00;99.90;;;;;;5014742;28;20026;-78
2024/03/27 06:44:53;;;;;;;8.00;4.38;;;10.90;99.90;;;;;;5015017;28;20026;-78
2024/03/27 06:47:19;;;;;;;6.47;4.32;;;10.90;99.90;;;;;;5015843;28;20038;-78
2024/03/27 06:49:48;;;;;;;5.60;4.20;;;10.80;99.90;;;;;;5015259;28;20101;-78
2024/03/27 06:52:14;;;;;;;7.22;5.18;;;10.80;99.90;;;;;;5015917;28;20037;-78
2024/03/27 06:54:39;;;;;;;8.82;4.47;;;10.70;99.90;;;;;;5013753;28;20022;-78
2024/03/27 06:57:05;;;;;;;8.32;5.53;;;10.70;99.90;;;;;;5015475;28;20022;-78
2024/03/27 06:59:31;;;;;;;9.02;6.40;;;10.60;99.90;;;;;;5014713;28;20077;-78
2024/03/27 07:01:57;;;;;;;9.10;5.53;;;10.60;99.90;;;;;;5015380;28;20026;-78
2024/03/27 07:04:22;;;;;;;8.50;6.10;;;10.50;99.90;;;;;;5014534;28;20033;-78
2024/03/27 07:06:48;;;;;;;9.05;6.55;;;10.40;99.90;;;;;;5015210;28;20041;-77
2024/03/27 07:09:14;;;;;;;9.63;6.38;;;10.40;99.90;;;;;;5014387;28;20478;-77
2024/03/27 07:11:40;;;;;;;10.88;6.95;;;10.40;99.90;;;;;;5015134;28;20022;-78
2024/03/27 07:14:05;;;;;;;8.38;6.07;;;10.30;99.90;;;;;;5014437;28;20029;-77
2024/03/27 07:16:31;;;;;;;8.98;6.03;;;10.30;99.90;;;;;;5014960;28;20029;-78
2024/03/27 07:18:57;;;;;;;9.23;6.90;;;10.30;99.90;;;;;;5013022;28;20104;-77
2024/03/27 07:21:22;;;;;;;8.38;6.32;;;10.20;99.90;;;;;;5013797;28;20033;-78
2024/03/27 07:23:48;;;;;;;10.43;7.22;;;10.20;99.90;;;;;;5014434;28;20419;-77
2024/03/27 07:26:13;;;;;;;9.95;7.07;;;10.20;99.90;;;;;;5015131;28;20025;-77
2024/03/27 07:28:39;;;;;;;12.52;8.43;;;10.10;99.90;;;;;;5012995;28;20030;-77
2024/03/27 07:31:05;;;;;;;13.10;8.77;;;10.10;99.90;;;;;;5015129;28;20022;-77
2024/03/27 07:33:31;;;;;;;16.83;13.15;;;10.00;99.90;;;;;;5014071;28;20026;-77
2024/03/27 07:35:57;;;;;;;17.85;13.13;;;10.00;99.90;;;;;;5013444;28;20022;-77
2024/03/27 07:38:23;;;;;;;18.15;13.80;;;9.90;99.90;;;;;;5012801;28;20022;-77
2024/03/27 07:40:49;;;;;;;19.08;13.82;;;9.90;99.90;;;;;;5013251;28;20068;-77
2024/03/27 07:43:15;;;;;;;20.92;14.80;;;9.80;99.90;;;;;;5013916;28;20029;-77
2024/03/27 07:45:41;;;;;;;17.02;13.38;;;9.80;99.90;;;;;;5014831;28;20034;-77
2024/03/27 07:48:08;;;;;;;18.27;13.55;;;9.70;99.90;;;;;;5014006;28;20029;-77
2024/03/27 07:50:34;;;;;;;18.60;12.95;;;9.70;99.90;;;;;;5014743;28;20056;-77
2024/03/27 07:53:00;;;;;;;15.43;12.18;;;9.70;99.90;;;;;;5014142;28;20113;-77
2024/03/27 07:55:26;;;;;;;16.20;12.15;;;9.70;99.90;;;;;;5014458;28;20101;-77
2024/03/27 07:57:52;;;;;;;16.70;12.95;;;9.70;99.90;;;;;;5014246;28;20014;-77
2024/03/27 08:00:18;;;;;;;13.90;10.50;;;9.70;99.90;;;;;;5014023;28;20076;-77
2024/03/27 08:02:44;;;;;;;13.63;9.98;;;9.70;99.90;;;;;;5014231;28;20057;-77
2024/03/27 08:05:09;;;;;;;12.70;10.43;;;9.60;99.90;;;;;;5013793;28;20480;-77
2024/03/27 08:07:35;;;;;;;14.95;11.48;;;9.60;99.90;;;;;;5013270;28;20030;-77
2024/03/27 08:10:05;;;;;;;15.45;11.20;;;9.70;99.90;;;;;;5013857;28;20546;-77
2024/03/27 08:12:31;;;;;;;15.80;11.50;;;9.60;99.90;;;;;;5014706;28;20026;-77
2024/03/27 08:14:57;;;;;;;16.52;11.85;;;9.60;99.90;;;;;;5013687;28;20022;-77
2024/03/27 08:17:22;;;;;;;15.13;11.75;;;9.60;99.90;;;;;;5012766;28;20044;-77
2024/03/27 08:19:48;;;;;;;15.95;11.70;;;9.60;99.90;;;;;;5013828;28;20029;-77
2024/03/27 08:22:14;;;;;;;15.95;11.40;;;9.60;99.90;;;;;;5014388;28;20033;-76
2024/03/27 08:24:40;;;;;;;15.40;12.05;;;9.60;99.90;;;;;;5013591;28;20116;-77
2024/03/27 08:27:05;;;;;;;17.45;13.82;;;9.60;99.90;;;;;;5013858;28;20392;-77
2024/03/27 08:29:32;;;;;;;18.13;12.90;;;9.60;99.90;;;;;;5013452;28;20041;-77
2024/03/27 08:31:58;;;;;;;16.10;12.88;;;9.60;99.90;;;;;;5012291;28;20049;-77
2024/03/27 08:34:24;;;;;;;18.17;13.20;;;9.60;99.90;;;;;;5013131;28;20028;-77
2024/03/27 08:36:50;;;;;;;18.88;13.32;;;9.60;99.90;;;;;;5013753;28;20026;-77
2024/03/27 08:39:16;;;;;;;18.17;12.68;;;9.70;99.90;;;;;;5013183;28;20498;-78
2024/03/27 08:41:42;;;;;;;18.70;13.00;;;9.70;99.90;;;;;;5014083;28;20022;-77
2024/03/27 08:44:08;;;;;;;17.15;13.57;;;9.70;99.90;;;;;;5012966;28;20034;-77
2024/03/27 08:46:34;;;;;;;17.20;12.68;;;9.70;99.90;;;;;;5013488;28;20037;-77
2024/03/27 08:49:00;;;;;;;16.95;13.73;;;9.70;99.90;;;;;;5011507;28;20459;-77
2024/03/27 08:51:26;;;;;;;18.58;13.93;;;9.70;99.90;;;;;;5013440;28;20026;-77
2024/03/27 08:53:52;;;;;;;14.95;12.10;;;9.70;99.90;;;;;;5011701;28;20037;-77
2024/03/27 08:56:18;;;;;;;21.05;14.38;;;9.70;99.90;;;;;;5013522;28;20038;-77
2024/03/27 08:58:47;;;;;;;19.52;14.68;;;9.70;99.90;;;;;;5012951;28;20043;-77
2024/03/27 09:01:15;;;;;;;17.88;11.57;;;9.80;99.90;;;;;;5012237;28;20489;-77
2024/03/27 09:03:42;;;;;;;15.68;12.57;;;9.80;99.90;;;;;;5012639;28;20018;-77
2024/03/27 09:06:09;;;;;;;19.05;13.02;;;9.80;99.90;;;;;;5012002;28;20049;-77
2024/03/27 09:08:35;;;;;;;16.35;12.98;;;9.80;99.90;;;;;;5011221;28;20044;-77
2024/03/27 09:11:01;;;;;;;17.10;12.07;;;9.90;99.90;;;;;;5013093;28;20018;-77
2024/03/27 09:13:27;;;;;;;14.70;11.40;;;9.90;99.90;;;;;;5012653;28;20448;-77
2024/03/27 09:15:58;;;;;;;14.85;11.40;;;9.80;99.90;;;;;;5012961;28;20542;-77
2024/03/27 09:18:24;;;;;;;15.20;11.00;;;9.80;99.90;;;;;;5010950;28;20579;-78
2024/03/27 09:21:00;;;;;;;15.40;12.15;;;9.80;99.90;;;;;;5012844;28;20061;-77
2024/03/27 09:23:26;;;;;;;15.23;12.00;;;9.80;99.90;;;;;;5010454;28;20105;-77
2024/03/27 09:25:57;;;;;;;17.58;12.75;;;9.80;99.90;;;;;;5012665;28;20033;-77
2024/03/27 09:28:23;;;;;;;19.25;12.25;;;9.80;99.90;;;;;;5011960;28;20589;-78
2024/03/27 09:30:49;;;;;;;17.52;11.75;;;9.80;99.90;;;;;;5012418;28;20022;-77
2024/03/27 09:33:15;;;;;;;16.25;12.75;;;9.80;99.90;;;;;;5012026;28;20026;-77
2024/03/27 09:35:46;;;;;;;15.90;12.38;;;9.80;99.90;;;;;;5010762;28;20072;-77
2024/03/27 09:38:12;;;;;;;17.45;13.10;;;9.80;99.90;;;;;;5011026;28;20079;-78
2024/03/27 09:40:43;;;;;;;14.45;11.55;;;9.80;99.90;;;;;;5011813;28;20502;-77
2024/03/27 09:43:12;;;;;;;17.63;11.55;;;9.80;99.90;;;;;;5011824;28;20034;-77
2024/03/27 09:45:39;;;;;;;19.00;11.65;;;9.80;99.90;;;;;;5010557;28;20034;-77
2024/03/27 09:48:10;;;;;;;19.23;12.32;;;9.80;99.90;;;;;;5012294;28;20030;-78
2024/03/27 09:50:36;;;;;;;15.73;11.80;;;9.90;99.90;;;;;;5011898;28;20048;-78
2024/03/27 09:53:04;;;;;;;14.48;10.45;;;9.90;99.90;;;;;;5012225;28;20036;-78
2024/03/27 09:55:34;;;;;;;14.13;9.98;;;9.90;99.90;;;;;;5011595;28;20038;-78
2024/03/27 09:58:21;;;;;;;13.85;9.80;;;9.90;99.90;;;;;;5012196;28;20252;-78
2024/03/27 10:00:46;;;;;;;12.35;8.95;;;9.90;99.90;;;;;;5012082;28;20022;-77
2024/03/27 10:03:12;;;;;;;12.05;8.30;;;9.90;99.90;;;;;;5012042;28;20029;-77
2024/03/27 10:05:43;;;;;;;11.35;7.63;;;9.90;99.90;;;;;;5011270;28;20029;-77
2024/03/27 10:08:08;;;;;;;11.37;7.40;;;9.80;99.90;;;;;;5010734;28;20120;-77
2024/03/27 10:10:34;;;;;;;9.32;6.57;;;9.80;99.90;;;;;;5011496;28;20061;-77
2024/03/27 10:13:01;;;;;;;12.88;7.38;;;9.80;99.90;;;;;;5012107;28;20045;-77
2024/03/27 10:15:27;;;;;;;13.57;7.45;;;9.70;99.90;;;;;;5011248;28;20538;-78
2024/03/27 10:17:54;;;;;;;10.15;7.07;;;9.70;99.90;;;;;;5011680;28;20046;-78
2024/03/27 10:20:19;;;;;;;10.63;6.63;;;9.80;99.90;;;;;;5011438;28;20056;-75
2024/03/27 10:22:46;;;;;;;9.75;6.20;;;9.80;99.90;;;;;;5012334;28;20038;-77
2024/03/27 10:25:12;;;;;;;8.30;5.22;;;9.70;99.90;;;;;;5011318;28;20018;-76
2024/03/27 10:27:39;;;;;;;9.82;5.68;;;9.70;99.90;;;;;;5011987;28;20060;-76
2024/03/27 10:30:10;;;;;;;9.63;5.93;;;9.70;99.90;;;;;;5011384;28;20032;-77
2024/03/27 10:32:36;;;;;;;;;;;9.70;99.90;;;;;;5012462;28;20049;-76
2024/03/27 10:35:03;;;;;;;8.05;5.93;;;9.70;99.90;;;;;;5011253;28;19909;-76
2024/03/27 10:37:28;;;;;;;10.07;5.35;;;9.60;99.90;;;;;;5011914;28;20032;-77
2024/03/27 10:40:00;;;;;;;11.05;6.68;;;9.60;99.90;;;;;;5011146;28;20108;-76
2024/03/27 10:42:27;;;;;;;10.35;5.85;;;9.60;99.90;;;;;;5010427;28;20018;-76
2024/03/27 10:44:58;;;;;;;10.20;5.82;;;9.70;99.90;;;;;;5009499;28;20026;-77
2024/03/27 10:47:31;;;;;;;13.35;6.35;;;9.70;99.90;;;;;;5011934;28;20076;-77
2024/03/27 10:49:58;;;;;;;11.05;6.07;;;9.70;99.90;;;;;;5011131;28;20069;-77
2024/03/27 10:52:23;;;;;;;9.27;6.22;;;9.60;99.90;;;;;;5010269;28;20026;-76
2024/03/27 10:54:50;;;;;;;10.32;6.10;;;9.70;99.90;;;;;;5012434;28;20083;-76
2024/03/27 10:57:18;;;;;;;12.27;6.00;;;9.70;99.90;;;;;;5014024;28;20029;-76
2024/03/27 10:59:46;;;;;;;9.73;4.63;;;9.70;99.90;;;;;;5014550;28;20095;-77
2024/03/27 11:02:13;;;;;;;8.55;5.20;;;9.70;99.90;;;;;;5015321;28;20033;-77
2024/03/27 11:04:40;;;;;;;9.88;5.68;;;9.80;99.90;;;;;;5014678;28;20101;-76
2024/03/27 11:07:07;;;;;;;8.23;5.10;;;9.80;99.90;;;;;;5015262;28;20451;-76
2024/03/27 11:09:33;;;;;;;10.50;5.40;;;9.80;99.90;;;;;;5014223;28;20026;-76
2024/03/27 11:12:01;;;;;;;8.75;5.38;;;9.80;99.90;;;;;;5015373;28;20021;-76
2024/03/27 11:14:27;;;;;;;10.27;5.13;;;9.80;99.90;;;;;;5014202;28;20509;-76
2024/03/27 11:16:54;;;;;;;10.30;5.70;;;9.90;99.90;;;;;;5015143;28;20022;-76
2024/03/27 11:19:32;;;;;;;11.18;6.18;;;9.80;99.90;;;;;;5014095;28;20089;-76
2024/03/27 11:22:17;;;;;;;10.77;5.25;;;9.90;99.90;;;;;;5015125;28;20038;-76
2024/03/27 11:24:44;;;;;;;8.93;5.03;;;9.80;99.90;;;;;;5014254;28;20025;-77
2024/03/27 11:27:11;;;;;;;9.43;5.28;;;9.80;99.90;;;;;;5014779;28;20038;-77
2024/03/27 11:29:38;;;;;;;9.70;5.32;;;9.80;99.90;;;;;;5014163;28;20030;-76
2024/03/27 11:32:07;;;;;;;8.77;4.85;;;9.80;99.90;;;;;;5015242;28;20032;-77
2024/03/27 11:34:33;;;;;;;8.32;4.82;;;9.90;99.90;;;;;;5013291;28;20257;-77
2024/03/27 11:36:59;;;;;;;8.77;5.05;;;9.90;99.90;;;;;;5014884;28;20018;-77
2024/03/27 11:39:26;;;;;;;14.27;5.63;;;9.90;99.90;;;;;;5013980;28;20018;-77
2024/03/27 11:41:53;;;;;;;8.57;5.60;;;9.90;99.90;;;;;;5014738;28;20093;-77
2024/03/27 11:44:19;;;;;;;9.93;5.25;;;9.90;99.90;;;;;;5013972;28;20034;-77
2024/03/27 11:46:45;;;;;;;7.70;4.53;;;9.90;99.90;;;;;;5014371;28;20018;-78
2024/03/27 11:49:14;;;;;;;8.20;5.07;;;9.80;99.90;;;;;;5012575;28;20026;-77
2024/03/27 11:51:40;;;;;;;9.85;5.32;;;9.80;99.90;;;;;;5014312;28;20048;-77
2024/03/27 11:54:05;;;;;;;7.80;5.10;;;9.80;99.90;;;;;;5012170;28;20022;-77
2024/03/27 11:56:33;;;;;;;8.57;5.63;;;9.80;99.90;;;;;;5014598;28;20030;-76
2024/03/27 11:58:59;;;;;;;7.68;5.10;;;9.90;99.90;;;;;;5014108;28;20080;-77
2024/03/27 12:01:25;;;;;;;10.02;5.47;;;9.90;99.90;;;;;;5014344;28;20028;-76
2024/03/27 12:03:53;;;;;;;8.88;4.82;;;9.90;99.90;;;;;;5013484;28;20030;-77
2024/03/27 12:06:19;;;;;;;7.25;4.82;;;9.90;99.90;;;;;;5013373;28;20028;-77
2024/03/27 12:08:45;;;;;;;7.63;4.70;;;9.90;99.90;;;;;;5013850;28;20018;-76
2024/03/27 12:11:10;;;;;;;9.45;5.28;;;10.00;99.90;;;;;;5013392;28;20092;-76
2024/03/27 12:13:40;;;;;;;7.13;4.85;;;9.90;99.90;;;;;;5013828;28;20033;-76
2024/03/27 12:16:13;;;;;;;8.27;4.75;;;9.90;99.90;;;;;;5013089;28;20053;-76
2024/03/27 12:18:39;;;;;;;10.32;4.32;;;10.00;99.90;;;;;;5013710;28;20046;-76
2024/03/27 12:21:13;;;;;;;7.35;4.43;;;10.00;99.90;;;;;;5012933;28;20383;-76
2024/03/27 12:23:39;;;;;;;6.10;3.78;;;10.00;99.90;;;;;;5013738;28;20026;-76
2024/03/27 12:26:14;;;;;;;5.32;3.47;;;10.00;99.90;;;;;;5013047;28;20542;-76
2024/03/27 12:28:42;;;;;;;6.40;4.00;;;10.00;99.90;;;;;;5013576;28;20025;-76
2024/03/27 12:31:09;;;;;;;6.90;4.18;;;10.00;99.90;;;;;;5012934;28;20448;-76
2024/03/27 12:33:35;;;;;;;6.97;3.72;;;9.90;99.90;;;;;;5013559;28;20018;-76
2024/03/27 12:36:01;;;;;;;6.65;4.30;;;9.90;99.90;;;;;;5012547;28;20080;-77
2024/03/27 12:38:27;;;;;;;7.95;4.13;;;9.90;99.90;;;;;;5013440;28;20029;-76
2024/03/27 12:40:53;;;;;;;9.60;4.43;;;9.90;99.90;;;;;;5011476;28;20510;-77
2024/03/27 12:43:19;;;;;;;8.88;4.30;;;10.00;99.90;;;;;;5013499;28;20501;-77